createdAt,value
2023-02-14T00:01:50.033Z,100553.67
2023-02-14T00:05:06.252Z,100553.88
2023-02-14T00:08:23.251Z,100553.67
2023-02-14T00:11:39.453Z,100544.02
2023-02-14T00:15:09.769Z,100551.14
2023-02-14T00:18:27.786Z,100546.76
2023-02-14T00:21:46.695Z,100549.28
2023-02-14T00:25:03.102Z,100545.17
2023-02-14T00:28:19.196Z,100560.16
2023-02-14T00:31:35.444Z,100551.45
2023-02-14T00:34:51.825Z,100549.01
2023-02-14T00:38:08.078Z,100550.98
2023-02-14T00:41:25.562Z,100545.73
2023-02-14T00:44:41.788Z,100538.33
2023-02-14T00:47:57.891Z,100542.83
2023-02-14T00:51:14.733Z,100541.13
2023-02-14T00:54:33.786Z,100531.77
2023-02-14T00:57:50.032Z,100532.80
2023-02-14T01:01:06.570Z,100528.00
2023-02-14T01:04:23.838Z,100522.58
2023-02-14T01:07:41.335Z,100525.20
2023-02-14T01:10:59.672Z,100528.76
2023-02-14T01:14:16.657Z,100535.88
2023-02-14T01:17:33.126Z,100535.12
2023-02-14T01:20:49.844Z,100538.50
2023-02-14T01:24:10.079Z,100534.95
2023-02-14T01:27:26.074Z,100543.75
2023-02-14T01:30:43.026Z,100541.89
2023-02-14T01:34:00.227Z,100536.63
2023-02-14T01:37:18.369Z,100538.40
2023-02-14T01:40:34.524Z,100538.50
2023-02-14T01:44:09.683Z,100529.14
2023-02-14T01:47:27.518Z,100525.86
2023-02-14T01:50:48.634Z,100519.09
2023-02-14T01:54:05.763Z,100523.72
2023-02-14T01:57:25.153Z,100523.62
2023-02-14T02:00:55.663Z,100520.52
2023-02-14T02:04:17.823Z,100511.36
2023-02-14T02:07:37.374Z,100516.50
2023-02-14T02:10:53.532Z,100506.00
2023-02-14T02:14:10.513Z,100503.38
2023-02-14T02:17:35.685Z,100510.22
2023-02-14T02:21:41.516Z,100510.39
2023-02-14T02:25:04.527Z,100527.00
2023-02-14T02:28:44.590Z,100518.09
2023-02-14T02:32:43.047Z,100514.81
2023-02-14T02:36:37.356Z,100515.57
2023-02-14T02:40:08.540Z,100519.61
2023-02-14T02:43:36.839Z,100516.61
2023-02-14T02:47:01.306Z,100508.42
2023-02-14T02:50:40.550Z,100511.81
2023-02-14T02:54:00.627Z,100511.63
2023-02-14T02:57:20.949Z,100510.77
2023-02-14T03:00:37.760Z,100512.64
2023-02-14T03:04:12.194Z,100506.66
2023-02-14T03:07:42.815Z,100506.11
2023-02-14T03:11:00.870Z,100509.39
2023-02-14T03:14:26.192Z,100513.67
2023-02-14T03:17:47.446Z,100520.89
2023-02-14T03:21:09.494Z,100520.06
2023-02-14T03:24:36.687Z,100523.45
2023-02-14T03:27:58.560Z,100522.58
2023-02-14T03:31:21.087Z,100524.17
2023-02-14T03:34:43.369Z,100531.11
2023-02-14T03:38:03.633Z,100534.50
2023-02-14T03:41:24.269Z,100536.47
2023-02-14T03:44:43.927Z,100527.66
2023-02-14T03:48:02.053Z,100526.14
2023-02-14T03:51:20.912Z,100532.91
2023-02-14T03:54:39.721Z,100527.28
2023-02-14T03:58:01.819Z,100531.02
2023-02-14T04:01:23.844Z,100526.52
2023-02-14T04:04:43.758Z,100534.02
2023-02-14T04:08:03.013Z,100536.26
2023-02-14T04:11:19.358Z,100534.50
2023-02-14T04:14:35.461Z,100532.05
2023-02-14T04:18:05.852Z,100537.23
2023-02-14T04:21:22.062Z,100540.69
2023-02-14T04:24:38.353Z,100536.64
2023-02-14T04:27:54.575Z,100540.88
2023-02-14T04:31:13.532Z,100537.05
2023-02-14T04:34:29.722Z,100544.81
2023-02-14T04:37:46.557Z,100542.65
2023-02-14T04:41:02.801Z,100549.41
2023-02-14T04:44:19.107Z,100545.38
2023-02-14T04:47:35.300Z,100538.91
2023-02-14T04:50:51.483Z,100537.22
2023-02-14T04:54:07.486Z,100545.19
2023-02-14T04:57:23.829Z,100551.09
2023-02-14T05:00:40.145Z,100549.97
2023-02-14T05:03:56.377Z,100539.02
2023-02-14T05:07:12.550Z,100543.30
2023-02-14T05:10:30.075Z,100539.67
2023-02-14T05:13:48.659Z,100539.47
2023-02-14T05:17:04.726Z,100543.95
2023-02-14T05:20:21.868Z,100541.63
2023-02-14T05:23:38.288Z,100527.48
2023-02-14T05:26:54.495Z,100540.40
2023-02-14T05:30:11.515Z,100544.81
2023-02-14T05:33:28.496Z,100542.30
2023-02-14T05:36:44.707Z,100534.59
2023-02-14T05:40:00.942Z,100539.67
2023-02-14T05:43:17.119Z,100549.14
2023-02-14T05:46:33.323Z,100548.47
2023-02-14T05:49:49.458Z,100555.03
2023-02-14T05:53:06.223Z,100554.66
2023-02-14T05:56:22.290Z,100557.38
2023-02-14T05:59:38.373Z,100551.17
2023-02-14T06:02:54.573Z,100558.97
2023-02-14T06:06:11.142Z,100562.53
2023-02-14T06:09:27.693Z,100559.70
2023-02-14T06:12:43.940Z,100563.19
2023-02-14T06:16:00.154Z,100566.28
2023-02-14T06:19:16.475Z,100563.56
2023-02-14T06:22:32.709Z,100568.05
2023-02-14T06:25:48.843Z,100570.50
2023-02-14T06:29:06.451Z,100561.66
2023-02-14T06:32:23.459Z,100560.81
2023-02-14T06:35:39.747Z,100563.73
2023-02-14T06:38:56.047Z,100567.02
2023-02-14T06:42:12.381Z,100564.59
2023-02-14T06:45:30.122Z,100562.53
2023-02-14T06:48:46.657Z,100572.66
2023-02-14T06:52:04.798Z,100564.67
2023-02-14T06:55:21.162Z,100567.67
2023-02-14T06:58:37.567Z,100579.77
2023-02-14T07:01:54.447Z,100572.55
2023-02-14T07:05:11.256Z,100576.97
2023-02-14T07:08:27.987Z,100584.09
2023-02-14T07:11:44.371Z,100581.19
2023-02-14T07:15:00.572Z,100590.38
2023-02-14T07:18:16.764Z,100598.72
2023-02-14T07:21:33.320Z,100590.18
2023-02-14T07:24:49.573Z,100594.50
2023-02-14T07:28:06.028Z,100595.53
2023-02-14T07:31:24.088Z,100598.26
2023-02-14T07:34:40.495Z,100606.13
2023-02-14T07:37:57.752Z,100598.98
2023-02-14T07:41:18.021Z,100602.48
2023-02-14T07:44:34.922Z,100605.17
2023-02-14T07:47:51.287Z,100604.80
2023-02-14T07:51:07.511Z,100598.61
2023-02-14T07:54:23.803Z,100601.14
2023-02-14T07:57:40.098Z,100600.03
2023-02-14T08:00:56.579Z,100608.28
2023-02-14T08:04:14.662Z,100600.97
2023-02-14T08:07:30.860Z,100594.68
2023-02-14T08:10:47.057Z,100598.06
2023-02-14T08:14:03.421Z,100604.60
2023-02-14T08:17:21.893Z,100611.65
2023-02-14T08:20:38.210Z,100607.81
2023-02-14T08:23:54.446Z,100607.50
2023-02-14T08:27:11.113Z,100610.69
2023-02-14T08:30:28.112Z,100609.47
2023-02-14T08:33:45.776Z,100604.77
2023-02-14T08:37:02.114Z,100606.17
2023-02-14T08:40:23.305Z,100607.77
2023-02-14T08:43:39.581Z,100616.20
2023-02-14T08:46:57.235Z,100615.34
2023-02-14T08:50:16.307Z,100624.08
2023-02-14T08:53:32.748Z,100622.21
2023-02-14T08:56:49.439Z,100627.91
2023-02-14T09:00:05.680Z,100634.55
2023-02-14T09:03:22.093Z,100633.53
2023-02-14T09:06:38.630Z,100637.75
2023-02-14T09:09:54.875Z,100644.48
2023-02-14T09:13:11.263Z,100639.88
2023-02-14T09:16:29.656Z,100650.39
2023-02-14T09:19:46.768Z,100655.83
2023-02-14T09:23:04.775Z,100661.56
2023-02-14T09:26:23.682Z,100659.38
2023-02-14T09:29:43.380Z,100660.96
2023-02-14T09:33:03.542Z,100668.67
2023-02-14T09:36:25.907Z,100656.24
2023-02-14T09:39:43.992Z,100662.15
2023-02-14T09:43:07.722Z,100659.41
2023-02-14T09:46:26.721Z,100667.13
2023-02-14T09:49:47.598Z,100660.63
2023-02-14T09:53:09.576Z,100665.56
2023-02-14T09:56:35.232Z,100651.48
2023-02-14T09:59:55.418Z,100661.06
2023-02-14T10:03:35.714Z,100652.53
2023-02-14T10:06:58.365Z,100653.83
2023-02-14T10:10:20.058Z,100654.37
2023-02-14T10:13:42.245Z,100663.84
2023-02-14T10:17:03.922Z,100657.11
2023-02-14T10:20:31.808Z,100655.98
2023-02-14T10:23:54.359Z,100655.70
2023-02-14T10:27:17.435Z,100659.73
2023-02-14T10:30:33.994Z,100645.65
2023-02-14T10:33:57.710Z,100651.52
2023-02-14T10:37:38.291Z,100650.30
2023-02-14T10:41:32.507Z,100646.52
2023-02-14T10:44:58.626Z,100655.05
2023-02-14T10:48:40.009Z,100650.52
2023-02-14T10:52:00.694Z,100640.53
2023-02-14T10:55:32.373Z,100639.27
2023-02-14T10:58:46.641Z,100630.66
2023-02-14T11:02:04.759Z,100632.88
2023-02-14T11:05:31.204Z,100626.01
2023-02-14T11:08:48.987Z,100627.70
2023-02-14T11:12:07.302Z,100623.84
2023-02-14T11:15:34.607Z,100635.72
2023-02-14T11:18:54.452Z,100627.11
2023-02-14T11:22:12.213Z,100621.20
2023-02-14T11:25:32.820Z,100623.53
2023-02-14T11:28:58.847Z,100617.41
2023-02-14T11:32:23.506Z,100619.53
2023-02-14T11:35:41.529Z,100615.95
2023-02-14T11:39:09.698Z,100601.97
2023-02-14T11:42:40.935Z,100606.18
2023-02-14T11:46:00.052Z,100598.93
2023-02-14T11:49:29.170Z,100594.72
2023-02-14T11:52:53.789Z,100599.57
2023-02-14T11:56:10.392Z,100591.67
2023-02-14T11:59:38.836Z,100596.60
2023-02-14T12:03:05.534Z,100597.05
2023-02-14T12:06:29.375Z,100594.83
2023-02-14T12:09:45.827Z,100591.25
2023-02-14T12:13:07.446Z,100589.56
2023-02-14T12:16:32.113Z,100588.20
2023-02-14T12:19:52.739Z,100593.05
2023-02-14T12:23:16.360Z,100579.98
2023-02-14T12:26:39.460Z,100581.47
2023-02-14T12:30:01.765Z,100580.50
2023-02-14T12:33:27.266Z,100574.08
2023-02-14T12:36:58.171Z,100573.36
2023-02-14T12:40:28.379Z,100570.50
2023-02-14T12:44:00.112Z,100571.25
2023-02-14T12:47:37.767Z,100567.23
2023-02-14T12:50:59.236Z,100560.49
2023-02-14T12:54:33.642Z,100557.55
2023-02-14T12:57:56.353Z,100543.45
2023-02-14T13:01:38.940Z,100547.42
2023-02-14T13:05:24.480Z,100538.50
2023-02-14T13:09:12.771Z,100545.97
2023-02-14T13:12:44.080Z,100547.34
2023-02-14T13:16:11.727Z,100551.66
2023-02-14T13:19:47.340Z,100542.39
2023-02-14T13:23:07.769Z,100545.25
2023-02-14T13:26:33.136Z,100546.59
2023-02-14T13:29:56.796Z,100543.33
2023-02-14T13:33:19.495Z,100544.91
2023-02-14T13:36:38.308Z,100538.27
2023-02-14T13:39:59.722Z,100533.00
2023-02-14T13:43:16.353Z,100526.28
2023-02-14T13:46:59.865Z,100530.80
2023-02-14T13:50:28.096Z,100523.84
2023-02-14T13:53:52.237Z,100532.48
2023-02-14T13:57:14.950Z,100532.06
2023-02-14T14:00:53.518Z,100526.36
2023-02-14T14:04:14.486Z,100528.56
2023-02-14T14:07:35.397Z,100516.38
2023-02-14T14:10:56.812Z,100519.01
2023-02-14T14:14:37.265Z,100528.56
2023-02-14T14:17:59.180Z,100532.48
2023-02-14T14:21:33.023Z,100531.03
2023-02-14T14:25:10.673Z,100528.16
2023-02-14T14:28:31.529Z,100530.05
2023-02-14T14:31:51.902Z,100530.80
2023-02-14T14:35:11.859Z,100522.90
2023-02-14T14:38:28.177Z,100527.42
2023-02-14T14:41:46.384Z,100528.16
2023-02-14T14:45:07.278Z,100531.63
2023-02-14T14:48:36.156Z,100532.48
2023-02-14T14:51:53.070Z,100532.91
2023-02-14T14:55:13.579Z,100540.18
2023-02-14T14:59:16.529Z,100534.09
2023-02-14T15:02:33.049Z,100529.22
2023-02-14T15:05:52.775Z,100533.53
2023-02-14T15:09:29.340Z,100531.77
2023-02-14T15:13:00.049Z,100533.98
2023-02-14T15:16:19.910Z,100539.25
2023-02-14T15:19:42.566Z,100535.77
2023-02-14T15:23:04.566Z,100537.76
2023-02-14T15:26:32.724Z,100549.34
2023-02-14T15:30:00.635Z,100545.77
2023-02-14T15:33:18.367Z,100550.39
2023-02-14T15:36:38.251Z,100550.81
2023-02-14T15:39:58.279Z,100552.70
2023-02-14T15:43:31.647Z,100563.22
2023-02-14T15:46:48.993Z,100566.71
2023-02-14T15:50:06.085Z,100565.55
2023-02-14T15:53:45.354Z,100567.13
2023-02-14T15:57:02.703Z,100563.11
2023-02-14T16:00:28.740Z,100566.38
2023-02-14T16:03:51.558Z,100567.31
2023-02-14T16:07:31.354Z,100573.44
2023-02-14T16:10:48.284Z,100570.06
2023-02-14T16:14:05.535Z,100580.58
2023-02-14T16:17:27.449Z,100584.38
2023-02-14T16:20:52.687Z,100585.95
2023-02-14T16:24:22.920Z,100586.78
2023-02-14T16:27:39.309Z,100595.61
2023-02-14T16:31:00.998Z,100589.82
2023-02-14T16:34:20.114Z,100586.25
2023-02-14T16:37:42.007Z,100582.68
2023-02-14T16:41:01.121Z,100586.47
2023-02-14T16:44:23.426Z,100584.89
2023-02-14T16:47:39.846Z,100582.91
2023-02-14T16:50:56.475Z,100580.99
2023-02-14T16:54:23.674Z,100583.63
2023-02-14T16:57:49.237Z,100585.53
2023-02-14T17:01:05.482Z,100589.29
2023-02-14T17:04:22.469Z,100590.45
2023-02-14T17:07:51.337Z,100600.11
2023-02-14T17:11:08.306Z,100589.40
2023-02-14T17:14:28.581Z,100596.00
2023-02-14T17:17:46.733Z,100604.64
2023-02-14T17:21:03.671Z,100602.20
2023-02-14T17:24:20.673Z,100607.39
2023-02-14T17:27:36.861Z,100607.28
2023-02-14T17:30:53.299Z,100607.46
2023-02-14T17:34:11.730Z,100603.78
2023-02-14T17:37:34.167Z,100610.55
2023-02-14T17:40:50.919Z,100607.06
2023-02-14T17:44:08.138Z,100602.66
2023-02-14T17:50:28.844Z,100615.46
2023-02-14T17:53:46.441Z,100609.45
2023-02-14T17:57:04.641Z,100606.39
2023-02-14T18:00:24.597Z,100603.11
2023-02-14T18:03:42.111Z,100606.78
2023-02-14T18:06:58.984Z,100603.97
2023-02-14T18:10:19.987Z,100609.84
2023-02-14T18:13:37.122Z,100605.55
2023-02-14T18:16:55.445Z,100607.44
2023-02-14T18:20:15.579Z,100618.48
2023-02-14T18:23:46.575Z,100610.17
2023-02-14T18:27:11.706Z,100604.80
2023-02-14T18:31:15.930Z,100603.11
2023-02-14T18:34:35.981Z,100597.96
2023-02-14T18:37:56.446Z,100599.66
2023-02-14T18:41:21.029Z,100600.77
2023-02-14T18:44:45.900Z,100599.84
2023-02-14T18:48:09.745Z,100600.98
2023-02-14T18:51:44.464Z,100597.17
2023-02-14T18:55:01.314Z,100591.27
2023-02-14T18:58:18.562Z,100585.17
2023-02-14T19:01:42.953Z,100587.16
2023-02-14T19:05:01.393Z,100584.53
2023-02-14T19:08:33.780Z,100590.44
2023-02-14T19:12:01.953Z,100590.33
2023-02-14T19:15:19.777Z,100591.91
2023-02-14T19:18:39.122Z,100589.72
2023-02-14T19:21:55.926Z,100593.71
2023-02-14T19:25:13.092Z,100592.02
2023-02-14T19:28:32.657Z,100592.67
2023-02-14T19:31:52.532Z,100587.48
2023-02-14T19:35:09.432Z,100589.17
2023-02-14T19:38:38.152Z,100595.91
2023-02-14T19:41:55.642Z,100588.89
2023-02-14T19:45:13.398Z,100590.66
2023-02-14T19:48:32.342Z,100587.02
2023-02-14T19:51:48.888Z,100583.52
2023-02-14T19:55:06.002Z,100579.13
2023-02-14T19:58:22.393Z,100585.00
2023-02-14T20:01:43.957Z,100588.38
2023-02-14T20:05:02.424Z,100583.13
2023-02-14T20:08:20.789Z,100592.05
2023-02-14T20:11:47.166Z,100588.89
2023-02-14T20:15:10.989Z,100591.52
2023-02-14T20:18:32.613Z,100589.93
2023-02-14T20:22:25.719Z,100578.38
2023-02-14T20:25:48.771Z,100589.72
2023-02-14T20:29:06.924Z,100581.83
2023-02-14T20:32:25.980Z,100579.20
2023-02-14T20:35:43.439Z,100582.77
2023-02-14T20:39:04.187Z,100587.30
2023-02-14T20:42:30.116Z,100584.78
2023-02-14T20:45:46.842Z,100591.48
2023-02-14T20:49:06.381Z,100579.16
2023-02-14T20:52:23.354Z,100580.31
2023-02-14T20:55:48.469Z,100580.78
2023-02-14T20:59:04.988Z,100581.00
2023-02-14T21:02:21.819Z,100581.75
2023-02-14T21:05:38.613Z,100572.91
2023-02-14T21:08:56.348Z,100573.00
2023-02-14T21:12:14.433Z,100580.89
2023-02-14T21:15:35.007Z,100580.50
2023-02-14T21:18:59.863Z,100579.95
2023-02-14T21:22:26.777Z,100577.72
2023-02-14T21:25:43.253Z,100579.70
2023-02-14T21:29:00.120Z,100584.77
2023-02-14T21:32:21.648Z,100582.80
2023-02-14T21:35:39.194Z,100586.91
2023-02-14T21:38:57.740Z,100586.25
2023-02-14T21:42:18.077Z,100584.02
2023-02-14T21:45:48.456Z,100583.75
2023-02-14T21:49:21.084Z,100583.09
2023-02-14T21:52:37.686Z,100585.34
2023-02-14T21:55:54.399Z,100579.14
2023-02-14T21:59:11.040Z,100577.35
2023-02-14T22:02:30.933Z,100577.56
2023-02-14T22:05:54.918Z,100568.92
2023-02-14T22:09:14.824Z,100570.06
2023-02-14T22:12:30.987Z,100563.41
2023-02-14T22:15:52.999Z,100565.56
2023-02-14T22:19:13.270Z,100560.00
2023-02-14T22:22:30.084Z,100563.28
2023-02-14T22:25:49.382Z,100566.66
2023-02-14T22:29:10.881Z,100556.33
2023-02-14T22:32:36.658Z,100551.58
2023-02-14T22:35:53.976Z,100553.92
2023-02-14T22:39:11.225Z,100551.68
2023-02-14T22:42:27.983Z,100560.21
2023-02-14T22:45:48.747Z,100560.65
2023-02-14T22:49:06.365Z,100557.48
2023-02-14T22:52:22.745Z,100557.04
2023-02-14T22:55:40.600Z,100554.91
2023-02-14T22:59:00.438Z,100548.03
2023-02-14T23:02:17.521Z,100552.34
2023-02-14T23:05:36.437Z,100550.86
2023-02-14T23:08:54.984Z,100541.02
2023-02-14T23:12:13.554Z,100542.16
2023-02-14T23:15:47.567Z,100545.17
2023-02-14T23:19:20.292Z,100540.85
2023-02-14T23:22:38.805Z,100533.80
2023-02-14T23:25:54.823Z,100540.25
2023-02-14T23:29:11.208Z,100538.17
2023-02-14T23:32:27.399Z,100533.96
2023-02-14T23:35:47.202Z,100536.31
2023-02-14T23:39:03.312Z,100536.05
2023-02-14T23:42:21.456Z,100525.59
2023-02-14T23:45:43.092Z,100525.20
2023-02-14T23:48:59.871Z,100525.20
2023-02-14T23:52:18.125Z,100510.49
2023-02-14T23:55:34.292Z,100513.67
2023-02-14T23:58:50.532Z,100511.80
